Anita, Pennsylvania
Current Conditions -  °F | °C
As of 10:53 AM on Friday 31 Oct 2014 (Local Time) from KDUJ Reporting Station
Overcast Overcast  
Wind Chill:   Ceiling: 4900
Heat Index:   Visibility: 10mi
Dew Point:   Wind: 5mph
Humidity: 82%   Direction: 170°S
Pressure: 29.92"   Gusts: NA
Location:  41°N, 78.96°W
Report Text: KDUJ 311453Z AUTO 17004KT 10SM OVC049 06/03 A2992 RMK AO2 SLP141 T00610033 58005
Loading
Personal Weather Stations






























Interactive Weather Map
Tropical Storm Tracking
New forecast layout! Learn more

10-Day Weather Forecast

Advertisements
Track Severe Weather on mobile